Positano Jet — IFTU — position and weather

sailwx.info

Track history (hours):
 
Tides and Currents Weather Stations Pressure Air Temp Water Temp Dewpoint Dewpoint Depression Visibility Wind Speed Wind Dir Waves Ship Positions

Positano Jet

Last reported at 2016-Aug-28 16:06 UTC. Time now 2016-Aug-29 01:56 UTC.
Position N 40°37' E 014°29'.

Length 23 m; draft 2 m.

Type: Ship. MMSI: 247160800.

Date/timePositionNaut miles runAvg speedWind from/ knotsBaromVisibWave heightAir tempDewpointWater temp
2016-Aug-28 16:06N 40°37' E 014°29'0 0.2
2016-Aug-28 15:15N 40°37' E 014°29'10 3.8
2016-Aug-28 12:33N 40°34' E 014°17'10 0.3
2016-Aug-27 07:17N 40°37' E 014°29'0 0.0
2016-Aug-27 06:30N 40°37' E 014°29'0 0.0
2016-Aug-27 03:17N 40°37' E 014°29'0 0.0
2016-Aug-27 02:10N 40°37' E 014°29'0 0.0
2016-Aug-27 01:33N 40°37' E 014°29'6 0.8
2016-Aug-26 17:19N 40°34' E 014°22'1 0.0
2016-Aug-25 17:15N 40°34' E 014°21'7 0.3
2016-Aug-24 17:33N 40°37' E 014°28'9 9.3
2016-Aug-24 16:33N 40°34' E 014°17'10 9.5
2016-Aug-24 15:30N 40°37' E 014°29'0 0.0
2016-Aug-24 14:32N 40°37' E 014°29'8 7.5
2016-Aug-24 13:31N 40°34' E 014°20'3 3.1
2016-Aug-24 12:33N 40°34' E 014°16'1010.3
2016-Aug-24 11:32N 40°37' E 014°29'3 2.9
2016-Aug-24 10:33N 40°36' E 014°26'9 9.3
2016-Aug-24 09:33N 40°33' E 014°14'1211.9
2016-Aug-24 08:33N 40°37' E 014°29'1 0.1
2016-Aug-23 17:34N 40°37' E 014°28'9 8.7
2016-Aug-23 16:33N 40°34' E 014°17'10 9.8
2016-Aug-23 15:33N 40°37' E 014°29'7 7.5
2016-Aug-23 14:33N 40°34' E 014°20'5 4.7
2016-Aug-23 13:33N 40°33' E 014°14'2 2.2
2016-Aug-23 12:32N 40°34' E 014°17'10 9.9
2016-Aug-23 11:33N 40°37' E 014°29'6 5.4
2016-Aug-23 10:30N 40°35' E 014°22'6 6.6
2016-Aug-23 09:33N 40°33' E 014°14'1212.0
2016-Aug-23 08:33N 40°37' E 014°29'0 0.1
2016-Aug-23 07:33N 40°37' E 014°29'7 0.5
2016-Aug-22 17:23N 40°34' E 014°21'2 2.7
2016-Aug-22 16:33N 40°34' E 014°18'10 9.1
2016-Aug-22 15:30N 40°37' E 014°29'0 0.0
2016-Aug-22 14:21N 40°37' E 014°29'6 7.3
2016-Aug-22 13:33N 40°34' E 014°23'4 4.2
2016-Aug-22 12:33N 40°34' E 014°17'7 3.5
2016-Aug-22 10:33N 40°36' E 014°26'9 9.3
2016-Aug-22 09:33N 40°33' E 014°14'1111.2
2016-Aug-22 08:33N 40°37' E 014°28'3 1.2
2016-Aug-22 06:10N 40°36' E 014°32'3 0.2
2016-Aug-21 17:33N 40°37' E 014°29'9 8.5
2016-Aug-21 16:32N 40°34' E 014°18'10 9.0
2016-Aug-21 15:26N 40°37' E 014°30'0 0.1
2016-Aug-21 14:33N 40°37' E 014°30'6 5.8
2016-Aug-21 13:33N 40°34' E 014°23'5 4.7
2016-Aug-21 12:33N 40°34' E 014°17'10 8.9
2016-Aug-21 11:26N 40°38' E 014°29'4 4.4
2016-Aug-21 10:33N 40°35' E 014°25'8 8.6
2016-Aug-21 09:34N 40°33' E 014°14'1211.5
2016-Aug-21 08:33N 40°37' E 014°29'0 0.4
2016-Aug-21 07:28N 40°37' E 014°29'0 0.0
2016-Aug-20 17:33N 40°37' E 014°29'9 8.8
2016-Aug-20 16:33N 40°34' E 014°18'4 1.4
2016-Aug-20 13:33N 40°35' E 014°23'4 4.0
2016-Aug-20 12:33N 40°34' E 014°18'9 9.1
2016-Aug-20 11:33N 40°37' E 014°29'4 4.1
2016-Aug-20 10:32N 40°35' E 014°25'8 8.4
2016-Aug-20 09:33N 40°33' E 014°14'1110.8
2016-Aug-20 08:33N 40°36' E 014°28'1 1.4
2016-Aug-20 07:34N 40°37' E 014°29'1 0.1
2016-Aug-19 17:32N 40°37' E 014°28'9 9.1
2016-Aug-19 16:33N 40°34' E 014°17'4 1.3
2016-Aug-19 13:32N 40°34' E 014°23'4 4.3
2016-Aug-19 12:34N 40°34' E 014°17'10 9.6
2016-Aug-19 11:32N 40°37' E 014°29'3 3.2
2016-Aug-19 10:33N 40°35' E 014°26'9 9.1
2016-Aug-19 09:33N 40°33' E 014°14'1111.2
2016-Aug-19 08:33N 40°37' E 014°29'1 0.0
2016-Aug-18 17:32N 40°37' E 014°28'8 8.5
2016-Aug-18 16:33N 40°34' E 014°18'  
Track history (hours):
 
Tides and Currents Weather Stations Pressure Air Temp Water Temp Dewpoint Dewpoint Depression Visibility Wind Speed Wind Dir Waves Ship Positions

Positano Jet

Last reported at 2016-Aug-28 16:06 UTC. Time now 2016-Aug-29 01:56 UTC.
Position N 40°37' E 014°29'.

Length 23 m; draft 2 m.

Type: Ship. MMSI: 247160800.

Date/timePositionNaut miles runAvg speedWind from/ knotsBaromVisibWave heightAir tempDewpointWater temp
2016-Aug-28 16:06N 40°37' E 014°29'0 0.2
2016-Aug-28 15:15N 40°37' E 014°29'10 3.8
2016-Aug-28 12:33N 40°34' E 014°17'10 0.3
2016-Aug-27 07:17N 40°37' E 014°29'0 0.0
2016-Aug-27 06:30N 40°37' E 014°29'0 0.0
2016-Aug-27 03:17N 40°37' E 014°29'0 0.0
2016-Aug-27 02:10N 40°37' E 014°29'0 0.0
2016-Aug-27 01:33N 40°37' E 014°29'6 0.8
2016-Aug-26 17:19N 40°34' E 014°22'1 0.0
2016-Aug-25 17:15N 40°34' E 014°21'7 0.3
2016-Aug-24 17:33N 40°37' E 014°28'9 9.3
2016-Aug-24 16:33N 40°34' E 014°17'10 9.5
2016-Aug-24 15:30N 40°37' E 014°29'0 0.0
2016-Aug-24 14:32N 40°37' E 014°29'8 7.5
2016-Aug-24 13:31N 40°34' E 014°20'3 3.1
2016-Aug-24 12:33N 40°34' E 014°16'1010.3
2016-Aug-24 11:32N 40°37' E 014°29'3 2.9
2016-Aug-24 10:33N 40°36' E 014°26'9 9.3
2016-Aug-24 09:33N 40°33' E 014°14'1211.9
2016-Aug-24 08:33N 40°37' E 014°29'1 0.1
2016-Aug-23 17:34N 40°37' E 014°28'9 8.7
2016-Aug-23 16:33N 40°34' E 014°17'10 9.8
2016-Aug-23 15:33N 40°37' E 014°29'7 7.5
2016-Aug-23 14:33N 40°34' E 014°20'5 4.7
2016-Aug-23 13:33N 40°33' E 014°14'2 2.2
2016-Aug-23 12:32N 40°34' E 014°17'10 9.9
2016-Aug-23 11:33N 40°37' E 014°29'6 5.4
2016-Aug-23 10:30N 40°35' E 014°22'6 6.6
2016-Aug-23 09:33N 40°33' E 014°14'1212.0
2016-Aug-23 08:33N 40°37' E 014°29'0 0.1
2016-Aug-23 07:33N 40°37' E 014°29'7 0.5
2016-Aug-22 17:23N 40°34' E 014°21'2 2.7
2016-Aug-22 16:33N 40°34' E 014°18'10 9.1
2016-Aug-22 15:30N 40°37' E 014°29'0 0.0
2016-Aug-22 14:21N 40°37' E 014°29'6 7.3
2016-Aug-22 13:33N 40°34' E 014°23'4 4.2
2016-Aug-22 12:33N 40°34' E 014°17'7 3.5
2016-Aug-22 10:33N 40°36' E 014°26'9 9.3
2016-Aug-22 09:33N 40°33' E 014°14'1111.2
2016-Aug-22 08:33N 40°37' E 014°28'3 1.2
2016-Aug-22 06:10N 40°36' E 014°32'3 0.2
2016-Aug-21 17:33N 40°37' E 014°29'9 8.5
2016-Aug-21 16:32N 40°34' E 014°18'10 9.0
2016-Aug-21 15:26N 40°37' E 014°30'0 0.1
2016-Aug-21 14:33N 40°37' E 014°30'6 5.8
2016-Aug-21 13:33N 40°34' E 014°23'5 4.7
2016-Aug-21 12:33N 40°34' E 014°17'10 8.9
2016-Aug-21 11:26N 40°38' E 014°29'4 4.4
2016-Aug-21 10:33N 40°35' E 014°25'8 8.6
2016-Aug-21 09:34N 40°33' E 014°14'1211.5
2016-Aug-21 08:33N 40°37' E 014°29'0 0.4
2016-Aug-21 07:28N 40°37' E 014°29'0 0.0
2016-Aug-20 17:33N 40°37' E 014°29'9 8.8
2016-Aug-20 16:33N 40°34' E 014°18'4 1.4
2016-Aug-20 13:33N 40°35' E 014°23'4 4.0
2016-Aug-20 12:33N 40°34' E 014°18'9 9.1
2016-Aug-20 11:33N 40°37' E 014°29'4 4.1
2016-Aug-20 10:32N 40°35' E 014°25'8 8.4
2016-Aug-20 09:33N 40°33' E 014°14'1110.8
2016-Aug-20 08:33N 40°36' E 014°28'1 1.4
2016-Aug-20 07:34N 40°37' E 014°29'1 0.1
2016-Aug-19 17:32N 40°37' E 014°28'9 9.1
2016-Aug-19 16:33N 40°34' E 014°17'4 1.3
2016-Aug-19 13:32N 40°34' E 014°23'4 4.3
2016-Aug-19 12:34N 40°34' E 014°17'10 9.6
2016-Aug-19 11:32N 40°37' E 014°29'3 3.2
2016-Aug-19 10:33N 40°35' E 014°26'9 9.1
2016-Aug-19 09:33N 40°33' E 014°14'1111.2
2016-Aug-19 08:33N 40°37' E 014°29'1 0.0
2016-Aug-18 17:32N 40°37' E 014°28'8 8.5
2016-Aug-18 16:33N 40°34' E 014°18'  

Dump ship's entire track history